Time;durP1;ratioP1;P1;durP2;ratioP2;P2;SDS_P1;SDS_P2;PMS_P1;PMS_P2;Temp;Humidity;BMP_temperature;BMP_pressure;BME280_temperature;BME280_humidity;BME280_pressure;Samples;Min_cycle;Max_cycle;Signal;HPM_P1;HPM_P2
2020/12/02 00:00:31;;;;;;;14.57;5.00;;;22.90;51.70;;;;;;5030445;28;20388;-40
2020/12/02 00:03:06;;;;;;;10.60;4.25;;;22.90;51.70;;;;;;5029918;28;20025;-40
2020/12/02 00:05:34;;;;;;;9.82;4.15;;;22.80;51.70;;;;;;5031676;28;20026;-40
2020/12/02 00:08:12;;;;;;;11.27;4.22;;;22.90;51.30;;;;;;5029331;28;20064;-40
2020/12/02 00:10:40;;;;;;;11.57;3.92;;;22.90;51.00;;;;;;5031665;28;20432;-40
2020/12/02 00:13:11;;;;;;;11.30;3.80;;;22.90;51.20;;;;;;5039738;28;20048;-40
2020/12/02 00:15:38;;;;;;;10.40;3.50;;;22.90;51.30;;;;;;5030587;28;20477;-40
2020/12/02 00:18:05;;;;;;;7.88;2.95;;;22.90;51.00;;;;;;5032946;28;20501;-40
2020/12/02 00:20:33;;;;;;;8.90;4.00;;;22.80;51.10;;;;;;5030825;28;20032;-40
2020/12/02 00:23:01;;;;;;;8.57;2.97;;;22.80;51.20;;;;;;5028511;28;21054;-40
2020/12/02 00:25:28;;;;;;;8.95;3.92;;;22.90;51.00;;;;;;5024739;28;20053;-40
2020/12/02 00:27:59;;;;;;;11.10;4.47;;;22.80;51.00;;;;;;5032400;28;20039;-40
2020/12/02 00:30:27;;;;;;;8.00;3.65;;;22.80;50.90;;;;;;5033795;28;20033;-40
2020/12/02 00:33:05;;;;;;;12.20;3.53;;;22.80;51.10;;;;;;5036588;28;20120;-41
2020/12/02 00:35:33;;;;;;;8.57;2.92;;;22.80;51.10;;;;;;5025605;28;20060;-40
2020/12/02 00:37:59;;;;;;;12.98;3.50;;;22.90;51.10;;;;;;5041167;28;20111;-40
2020/12/02 00:40:26;;;;;;;9.02;3.20;;;22.90;51.00;;;;;;5033589;28;20446;-40
2020/12/02 00:42:53;;;;;;;9.00;2.55;;;23.00;50.80;;;;;;5030425;28;20029;-40
2020/12/02 00:45:20;;;;;;;7.03;2.65;;;23.00;51.10;;;;;;5031628;28;20067;-40
2020/12/02 00:47:50;;;;;;;6.15;2.53;;;23.10;51.00;;;;;;5037492;28;20414;-40
2020/12/02 00:50:19;;;;;;;4.97;2.15;;;23.10;51.20;;;;;;5033087;28;20125;-40
2020/12/02 00:53:02;;;;;;;6.28;2.60;;;23.10;51.20;;;;;;5030759;28;20056;-40
2020/12/02 00:55:29;;;;;;;8.05;2.78;;;23.10;51.10;;;;;;5028059;28;20388;-40
2020/12/02 00:57:57;;;;;;;4.80;2.65;;;23.10;50.80;;;;;;5040367;28;20132;-40
2020/12/02 01:00:28;;;;;;;6.95;2.25;;;23.20;50.70;;;;;;5040200;28;20844;-40
2020/12/02 01:03:27;;;;;;;6.43;2.15;;;23.20;50.70;;;;;;5041428;28;20036;-40
2020/12/02 01:05:56;;;;;;;5.97;2.50;;;23.30;50.80;;;;;;5039578;28;20108;-40
2020/12/02 01:08:26;;;;;;;5.43;2.58;;;23.30;50.90;;;;;;5038799;28;20032;-40
2020/12/02 01:11:04;;;;;;;4.65;2.20;;;23.40;50.80;;;;;;5036285;28;20055;-40
2020/12/02 01:13:35;;;;;;;6.35;2.28;;;23.40;50.70;;;;;;5038072;28;20029;-40
2020/12/02 01:16:08;;;;;;;5.28;2.25;;;23.40;50.80;;;;;;5034843;28;20025;-42
2020/12/02 01:18:35;;;;;;;4.00;2.80;;;23.50;50.80;;;;;;5035563;28;20039;-40
2020/12/02 01:21:27;;;;;;;6.63;2.50;;;23.50;50.60;;;;;;5018017;28;20124;-40
2020/12/02 01:23:59;;;;;;;5.85;1.90;;;23.50;50.80;;;;;;5036948;28;20504;-40
2020/12/02 01:26:37;;;;;;;5.68;2.05;;;23.50;50.90;;;;;;5034047;28;20124;-40
2020/12/02 01:29:13;;;;;;;5.15;2.13;;;23.50;50.80;;;;;;5038721;28;20029;-41
2020/12/02 01:31:41;;;;;;;4.90;1.70;;;23.60;50.70;;;;;;5035270;28;20361;-40
2020/12/02 01:34:09;;;;;;;4.88;2.05;;;23.60;50.60;;;;;;5034739;28;20064;-40
2020/12/02 01:36:59;;;;;;;7.53;2.53;;;23.60;50.60;;;;;;5036795;28;20082;-41
2020/12/02 01:39:31;;;;;;;4.75;1.73;;;23.60;50.30;;;;;;5031669;28;20045;-40
2020/12/02 01:41:59;;;;;;;7.57;2.60;;;23.60;50.50;;;;;;5041821;28;20095;-40
2020/12/02 01:44:26;;;;;;;7.32;2.95;;;23.60;50.70;;;;;;5040114;28;20507;-40
2020/12/02 01:47:17;;;;;;;6.57;1.85;;;23.60;50.40;;;;;;5037746;28;20028;-41
2020/12/02 01:49:55;;;;;;;7.45;2.10;;;23.60;50.30;;;;;;5046381;28;20052;-40
2020/12/02 01:52:43;;;;;;;4.70;1.85;;;23.60;49.80;;;;;;5040426;28;20056;-41
2020/12/02 01:55:16;;;;;;;4.97;1.58;;;23.70;50.20;;;;;;5039715;28;20040;-40
2020/12/02 01:57:45;;;;;;;5.82;1.98;;;23.70;50.10;;;;;;5034657;28;20512;-40
2020/12/02 02:00:27;;;;;;;3.47;1.67;;;23.80;50.10;;;;;;5034935;28;20029;-40
2020/12/02 02:03:16;;;;;;;5.50;1.73;;;23.80;50.10;;;;;;5035987;28;20025;-40
2020/12/02 02:05:54;;;;;;;5.40;1.40;;;23.80;50.00;;;;;;5009136;28;20029;-41
2020/12/02 02:08:24;;;;;;;4.13;1.60;;;23.80;50.00;;;;;;5036339;28;20044;-41
2020/12/02 02:10:53;;;;;;;5.95;1.50;;;23.80;50.20;;;;;;5036568;28;20029;-40
2020/12/02 02:13:31;;;;;;;5.93;2.20;;;23.90;50.30;;;;;;5034179;28;20056;-40
2020/12/02 02:16:08;;;;;;;4.40;1.65;;;24.00;50.20;;;;;;5038743;28;20040;-41
2020/12/02 02:18:35;;;;;;;6.65;1.80;;;24.00;50.10;;;;;;5037163;28;20314;-41
2020/12/02 02:21:10;;;;;;;3.47;1.70;;;24.00;50.10;;;;;;5040125;28;20029;-41
2020/12/02 02:23:37;;;;;;;8.35;2.28;;;24.00;49.90;;;;;;5033754;28;22106;-41
2020/12/02 02:26:10;;;;;;;5.00;1.70;;;24.10;50.00;;;;;;5021370;28;20065;-41
2020/12/02 02:29:06;;;;;;;4.57;1.83;;;24.10;49.80;;;;;;5034279;28;20447;-41
2020/12/02 02:31:49;;;;;;;3.30;1.65;;;24.10;50.20;;;;;;5033263;28;20120;-41
2020/12/02 02:34:17;;;;;;;10.35;2.45;;;24.20;49.80;;;;;;5035764;28;20037;-40
2020/12/02 02:36:44;;;;;;;6.40;2.05;;;24.20;49.60;;;;;;5036161;28;20060;-40
2020/12/02 02:39:14;;;;;;;4.82;1.83;;;24.20;49.40;;;;;;5034286;28;20040;-41
2020/12/02 02:41:42;;;;;;;5.05;2.00;;;24.30;49.50;;;;;;5036030;28;20098;-41
2020/12/02 02:44:11;;;;;;;5.35;2.03;;;24.30;49.20;;;;;;5036049;28;20028;-41
2020/12/02 02:46:38;;;;;;;3.92;1.73;;;24.30;49.10;;;;;;5039773;28;20025;-41
2020/12/02 02:49:07;;;;;;;5.95;1.60;;;24.40;49.40;;;;;;5039915;28;20033;-40
2020/12/02 02:51:34;;;;;;;7.50;2.60;;;24.40;49.10;;;;;;5033107;28;20031;-40
2020/12/02 02:54:02;;;;;;;5.47;2.08;;;24.50;49.30;;;;;;5030320;28;20096;-41
2020/12/02 02:56:29;;;;;;;3.00;1.63;;;24.50;49.30;;;;;;5038041;28;20565;-41
2020/12/02 02:58:56;;;;;;;6.80;1.95;;;24.70;49.10;;;;;;5035126;28;20481;-40
2020/12/02 03:01:23;;;;;;;5.75;1.88;;;24.60;49.00;;;;;;5035579;28;20063;-41
2020/12/02 03:03:50;;;;;;;3.83;1.52;;;24.70;48.90;;;;;;5036667;28;20047;-41
2020/12/02 03:06:17;;;;;;;5.40;1.83;;;24.70;48.70;;;;;;5028575;28;20037;-41
2020/12/02 03:08:45;;;;;;;6.30;1.80;;;24.80;48.80;;;;;;5028376;28;20029;-41
2020/12/02 03:11:15;;;;;;;5.65;1.90;;;24.80;48.40;;;;;;5033580;28;20048;-43
2020/12/02 03:13:46;;;;;;;4.80;1.70;;;24.80;48.30;;;;;;5033665;28;20041;-41
2020/12/02 03:16:24;;;;;;;;;;;24.90;48.70;;;;;;5032411;28;20131;-41
2020/12/02 03:18:56;;;;;;;2.88;1.77;;;25.00;47.90;;;;;;5037180;28;19916;-44
2020/12/02 03:21:24;;;;;;;8.43;2.33;;;25.00;47.90;;;;;;5036585;28;20055;-58
2020/12/02 03:23:52;;;;;;;3.75;2.03;;;25.00;48.00;;;;;;5034562;28;20038;-40
2020/12/02 03:26:20;;;;;;;6.03;1.77;;;25.10;48.00;;;;;;5036104;28;20531;-40
2020/12/02 03:28:48;;;;;;;6.70;2.17;;;25.20;48.10;;;;;;5036668;28;20033;-41
2020/12/02 03:31:18;;;;;;;6.22;2.60;;;25.10;48.00;;;;;;5033739;28;20032;-40
2020/12/02 03:33:46;;;;;;;4.63;2.13;;;25.10;47.70;;;;;;5035554;28;20033;-41
2020/12/02 03:36:16;;;;;;;5.97;2.00;;;25.10;47.90;;;;;;5034044;28;20277;-40
2020/12/02 03:38:44;;;;;;;6.45;2.33;;;25.10;48.20;;;;;;5038332;28;20029;-40
2020/12/02 03:41:12;;;;;;;5.13;1.85;;;25.10;48.20;;;;;;5039015;28;20032;-41
2020/12/02 03:43:39;;;;;;;3.95;2.05;;;25.20;48.20;;;;;;5034112;28;20126;-41
2020/12/02 03:46:07;;;;;;;7.40;1.80;;;25.20;48.80;;;;;;5038576;28;20029;-40
2020/12/02 03:48:34;;;;;;;6.47;2.28;;;25.20;48.50;;;;;;5034627;28;20075;-42
2020/12/02 03:51:02;;;;;;;5.18;2.38;;;25.30;49.20;;;;;;5039126;28;20035;-40
2020/12/02 03:53:29;;;;;;;4.13;2.00;;;25.30;48.80;;;;;;5036964;28;20539;-41
2020/12/02 03:55:56;;;;;;;6.32;2.25;;;25.40;48.70;;;;;;5037902;28;20063;-42
2020/12/02 03:58:24;;;;;;;5.88;1.73;;;25.30;48.60;;;;;;5033367;28;20116;-42
2020/12/02 04:00:51;;;;;;;4.13;1.90;;;25.30;48.80;;;;;;5035208;28;20032;-40
2020/12/02 04:03:18;;;;;;;5.93;2.10;;;25.40;48.80;;;;;;5031864;28;20836;-42
2020/12/02 04:05:45;;;;;;;5.35;1.77;;;25.30;48.80;;;;;;5034136;28;20396;-41
2020/12/02 04:08:12;;;;;;;6.88;1.80;;;25.30;48.90;;;;;;5035697;28;20112;-41
2020/12/02 04:10:39;;;;;;;5.65;1.77;;;25.40;49.20;;;;;;5038467;28;20120;-41
2020/12/02 04:13:06;;;;;;;4.75;2.20;;;25.40;49.10;;;;;;5029045;28;20059;-41
2020/12/02 04:15:36;;;;;;;4.82;2.03;;;25.40;48.60;;;;;;5035223;28;20026;-42
2020/12/02 04:18:04;;;;;;;4.72;1.67;;;25.40;48.60;;;;;;5031254;28;20079;-41
2020/12/02 04:20:31;;;;;;;5.95;1.70;;;25.40;48.70;;;;;;5030292;28;20108;-40
2020/12/02 04:22:58;;;;;;;4.15;1.45;;;25.40;48.70;;;;;;5029853;28;20052;-41
2020/12/02 04:25:26;;;;;;;6.13;1.90;;;25.40;48.70;;;;;;5033777;28;20037;-41
2020/12/02 04:27:54;;;;;;;2.75;1.40;;;25.40;48.50;;;;;;5033362;28;20021;-41
2020/12/02 04:30:21;;;;;;;4.05;1.60;;;25.40;48.50;;;;;;5040062;28;20037;-41
2020/12/02 04:32:49;;;;;;;4.90;1.88;;;25.40;48.40;;;;;;5043386;28;20485;-41
2020/12/02 04:35:17;;;;;;;6.00;1.98;;;25.50;48.40;;;;;;5040373;28;20029;-43
2020/12/02 04:37:44;;;;;;;3.95;2.30;;;25.50;48.30;;;;;;5042632;28;20091;-41
2020/12/02 04:40:20;;;;;;;4.20;1.95;;;25.50;48.50;;;;;;5037060;28;20110;-41
2020/12/02 04:42:57;;;;;;;4.95;1.80;;;25.50;48.20;;;;;;5039073;28;20067;-41
2020/12/02 04:45:29;;;;;;;6.18;1.77;;;25.50;48.20;;;;;;5027601;28;20029;-41
2020/12/02 04:48:02;;;;;;;3.85;1.20;;;25.50;48.20;;;;;;5031469;28;20471;-41
2020/12/02 04:50:30;;;;;;;4.28;2.03;;;25.50;47.90;;;;;;5032696;28;20096;-41
2020/12/02 04:53:15;;;;;;;4.63;1.83;;;25.60;48.20;;;;;;5031192;28;20056;-43
2020/12/02 04:55:44;;;;;;;5.10;1.88;;;25.60;47.90;;;;;;5020490;28;20507;-41
2020/12/02 04:58:39;;;;;;;6.60;2.42;;;25.60;47.60;;;;;;5040739;28;20037;-44
2020/12/02 05:01:28;;;;;;;5.38;1.67;;;25.60;47.50;;;;;;5026389;28;20045;-41
2020/12/02 05:03:59;;;;;;;7.65;1.70;;;25.60;47.30;;;;;;5037657;28;20040;-42
2020/12/02 05:06:39;;;;;;;6.72;1.92;;;25.60;47.40;;;;;;5039565;28;20040;-41
2020/12/02 05:09:16;;;;;;;6.65;1.90;;;25.50;47.20;;;;;;5043268;28;20094;-41
2020/12/02 05:11:54;;;;;;;6.22;2.20;;;25.50;47.10;;;;;;5035688;28;20041;-41
2020/12/02 05:14:21;;;;;;;5.07;1.70;;;25.60;47.90;;;;;;5041266;28;20033;-41
2020/12/02 05:17:06;;;;;;;6.18;1.92;;;25.70;47.50;;;;;;5036046;28;20139;-42
2020/12/02 05:19:33;;;;;;;9.70;2.30;;;25.70;47.10;;;;;;5042076;28;20039;-41
2020/12/02 05:22:06;;;;;;;6.28;1.88;;;25.80;47.10;;;;;;5039930;28;20420;-40
2020/12/02 05:24:44;;;;;;;6.88;2.58;;;25.80;47.10;;;;;;5024516;28;20044;-41
2020/12/02 05:27:15;;;;;;;4.93;2.10;;;25.70;47.10;;;;;;5022601;28;20116;-43
2020/12/02 05:30:20;;;;;;;5.63;1.67;;;25.80;47.30;;;;;;5041248;28;20083;-44
2020/12/02 05:33:13;;;;;;;8.77;2.60;;;25.80;47.40;;;;;;4938168;28;20035;-41
2020/12/02 05:35:47;;;;;;;3.75;1.90;;;25.70;46.90;;;;;;5030669;28;20060;-41
2020/12/02 05:38:31;;;;;;;7.05;1.95;;;25.70;46.80;;;;;;5032623;28;20029;-43
2020/12/02 05:40:59;;;;;;;7.60;2.70;;;25.70;46.70;;;;;;5026340;28;20449;-43
2020/12/02 05:43:51;;;;;;;5.75;2.03;;;25.70;46.70;;;;;;5031902;28;20320;-41
2020/12/02 05:46:24;;;;;;;6.78;1.95;;;25.70;46.80;;;;;;5033784;28;20107;-41
2020/12/02 05:49:09;;;;;;;9.23;3.25;;;25.60;46.50;;;;;;5034545;28;20040;-41
2020/12/02 05:51:37;;;;;;;9.75;1.80;;;25.60;46.70;;;;;;5036985;28;20033;-41
2020/12/02 05:54:15;;;;;;;5.15;2.10;;;25.60;46.70;;;;;;5031387;28;20031;-41
2020/12/02 05:56:45;;;;;;;4.50;1.73;;;25.60;46.60;;;;;;5033347;28;20021;-41
2020/12/02 05:59:12;;;;;;;7.07;2.47;;;25.60;46.60;;;;;;5043283;28;20037;-41
2020/12/02 06:01:40;;;;;;;7.40;1.80;;;25.70;46.60;;;;;;5042027;28;20034;-41
2020/12/02 06:04:13;;;;;;;5.82;2.30;;;25.70;46.70;;;;;;5037794;28;20048;-41
2020/12/02 06:06:40;;;;;;;5.50;1.95;;;25.80;46.30;;;;;;5024233;28;20040;-41
2020/12/02 06:09:08;;;;;;;4.70;2.20;;;25.80;46.40;;;;;;5040115;28;20029;-41
2020/12/02 06:11:37;;;;;;;8.38;2.17;;;25.90;46.50;;;;;;5042728;28;20029;-41
2020/12/02 06:14:06;;;;;;;2.90;1.40;;;25.80;47.00;;;;;;5039335;28;20029;-42
2020/12/02 06:16:38;;;;;;;8.55;2.25;;;25.90;46.30;;;;;;5041783;28;20040;-42
2020/12/02 06:19:16;;;;;;;4.55;2.10;;;25.90;46.30;;;;;;5032944;28;20072;-41
2020/12/02 06:21:46;;;;;;;6.85;3.05;;;25.90;46.30;;;;;;5040528;28;20041;-41
2020/12/02 06:24:35;;;;;;;8.27;2.05;;;26.00;46.20;;;;;;5032646;28;20037;-41
2020/12/02 06:27:24;;;;;;;10.20;3.25;;;25.90;45.90;;;;;;5035067;28;20570;-41
2020/12/02 06:30:06;;;;;;;8.02;2.53;;;25.90;46.00;;;;;;5021520;28;20076;-42
2020/12/02 06:32:35;;;;;;;6.95;1.90;;;25.90;45.70;;;;;;5042671;28;20319;-41
2020/12/02 06:35:20;;;;;;;9.85;2.22;;;25.80;45.60;;;;;;5034388;28;20130;-41
2020/12/02 06:38:22;;;;;;;11.40;2.38;;;25.80;45.80;;;;;;5044423;28;20151;-41
2020/12/02 06:40:51;;;;;;;;;;;25.80;45.70;;;;;;5043249;28;20044;-41
2020/12/02 06:43:22;;;;;;;6.78;2.38;;;25.80;45.70;;;;;;5033936;28;19947;-41
2020/12/02 06:45:49;;;;;;;8.02;1.95;;;25.80;45.50;;;;;;5040319;28;21391;-40
2020/12/02 06:48:27;;;;;;;6.03;2.17;;;25.70;45.50;;;;;;5045824;28;20029;-41
2020/12/02 06:50:59;;;;;;;8.20;2.40;;;25.80;45.50;;;;;;5042911;28;20028;-41
2020/12/02 06:53:25;;;;;;;;;;;25.80;45.60;;;;;;5044789;28;20063;-41
2020/12/02 06:56:01;;;;;;;10.60;2.33;;;25.80;45.50;;;;;;5042874;28;19916;-41
2020/12/02 06:58:28;;;;;;;8.75;1.98;;;25.80;45.50;;;;;;5046074;28;20056;-40
2020/12/02 07:00:58;;;;;;;7.80;2.50;;;25.80;45.50;;;;;;5039092;28;20033;-45
2020/12/02 07:03:43;;;;;;;8.82;2.50;;;25.90;45.60;;;;;;5041509;28;20561;-43
2020/12/02 07:06:10;;;;;;;6.75;2.75;;;25.90;45.60;;;;;;5034730;28;20052;-42
2020/12/02 07:08:40;;;;;;;8.77;2.90;;;26.00;45.70;;;;;;5040821;28;20522;-41
2020/12/02 07:11:16;;;;;;;9.23;3.00;;;26.10;45.80;;;;;;5040887;28;20041;-41
2020/12/02 07:13:50;;;;;;;11.02;2.50;;;26.10;45.90;;;;;;5044488;28;20040;-41
2020/12/02 07:16:23;;;;;;;7.40;2.17;;;26.10;45.80;;;;;;5031109;28;20083;-41
2020/12/02 07:19:03;;;;;;;5.50;1.83;;;26.20;45.90;;;;;;5034170;28;20029;-41
2020/12/02 07:21:35;;;;;;;10.07;2.38;;;26.20;46.00;;;;;;5036769;28;20036;-43
2020/12/02 07:24:01;;;;;;;;;;;26.20;46.00;;;;;;5026269;28;20060;-41
2020/12/02 07:26:30;;;;;;;4.38;1.70;;;26.20;46.20;;;;;;5039701;28;19995;-40
2020/12/02 07:29:16;;;;;;;6.78;2.13;;;26.20;46.20;;;;;;5042822;28;20029;-41
2020/12/02 07:31:44;;;;;;;4.93;2.15;;;26.30;46.20;;;;;;5042551;28;20532;-40
2020/12/02 07:34:21;;;;;;;10.07;2.20;;;26.20;46.10;;;;;;5044339;28;20029;-40
2020/12/02 07:36:55;;;;;;;8.05;2.55;;;26.30;46.50;;;;;;5036456;28;20051;-40
2020/12/02 07:39:24;;;;;;;7.28;2.08;;;26.20;46.30;;;;;;5031346;28;20051;-41
2020/12/02 07:42:05;;;;;;;13.32;2.60;;;26.30;46.20;;;;;;5028125;28;20053;-40
2020/12/02 07:44:41;;;;;;;10.82;2.53;;;26.30;46.00;;;;;;5040005;28;20041;-42
2020/12/02 07:47:12;;;;;;;7.70;2.20;;;26.20;45.60;;;;;;5030491;28;20025;-41
2020/12/02 07:49:42;;;;;;;5.57;2.00;;;26.20;46.00;;;;;;5036090;28;20098;-41
2020/12/02 07:52:34;;;;;;;9.38;1.90;;;26.20;45.70;;;;;;5027483;28;20116;-41
2020/12/02 07:55:06;;;;;;;11.25;2.47;;;26.20;45.70;;;;;;5033009;28;20128;-41
2020/12/02 07:57:35;;;;;;;8.77;2.35;;;26.20;45.60;;;;;;5030257;28;20124;-41
2020/12/02 08:00:17;;;;;;;9.80;2.75;;;26.20;45.60;;;;;;5035128;28;20040;-41
2020/12/02 08:02:46;;;;;;;9.05;2.72;;;26.30;45.90;;;;;;5032394;28;20519;-41
2020/12/02 08:05:39;;;;;;;7.70;2.63;;;26.30;45.80;;;;;;5032876;28;20040;-41
2020/12/02 08:08:06;;;;;;;10.15;2.42;;;26.30;45.60;;;;;;5027771;28;20033;-41
2020/12/02 08:10:36;;;;;;;8.93;3.10;;;26.20;45.20;;;;;;5032173;28;20049;-41
2020/12/02 08:13:15;;;;;;;8.38;3.15;;;26.20;45.20;;;;;;5033715;28;20035;-41
2020/12/02 08:15:54;;;;;;;8.75;2.80;;;26.10;45.20;;;;;;5035007;28;20455;-42
2020/12/02 08:18:28;;;;;;;6.40;1.85;;;26.20;45.40;;;;;;5036527;28;20064;-41
2020/12/02 08:21:14;;;;;;;7.95;3.28;;;26.20;45.30;;;;;;5033218;28;20037;-41
2020/12/02 08:23:51;;;;;;;9.05;3.08;;;26.20;45.30;;;;;;5033572;28;20143;-41
2020/12/02 08:26:23;;;;;;;9.23;2.20;;;26.20;45.20;;;;;;5043879;28;20033;-41
2020/12/02 08:28:52;;;;;;;8.57;2.35;;;26.20;45.50;;;;;;5021522;28;20043;-43
2020/12/02 08:31:27;;;;;;;9.48;2.80;;;26.20;45.40;;;;;;5043362;28;20558;-41
2020/12/02 08:34:12;;;;;;;10.40;2.88;;;26.30;45.60;;;;;;5039155;28;20036;-41
2020/12/02 08:36:46;;;;;;;8.70;2.55;;;26.30;45.40;;;;;;5035691;28;20056;-41
2020/12/02 08:39:14;;;;;;;7.15;2.47;;;26.30;45.40;;;;;;5040561;28;20033;-41
2020/12/02 08:41:47;;;;;;;9.32;2.10;;;26.20;45.20;;;;;;5041991;28;20087;-43
2020/12/02 08:44:17;;;;;;;6.38;2.10;;;26.20;45.50;;;;;;5040102;28;20033;-41
2020/12/02 08:46:59;;;;;;;6.93;2.58;;;26.20;45.60;;;;;;5036719;28;20060;-41
2020/12/02 08:49:36;;;;;;;9.27;3.03;;;26.10;45.80;;;;;;5039259;28;20086;-40
2020/12/02 08:52:04;;;;;;;8.73;2.63;;;26.20;45.70;;;;;;5043211;28;20044;-41
2020/12/02 08:54:31;;;;;;;10.35;3.78;;;26.20;45.80;;;;;;5041170;28;20037;-41
2020/12/02 08:57:04;;;;;;;7.93;2.92;;;26.10;45.80;;;;;;5044284;28;20041;-41
2020/12/02 08:59:31;;;;;;;8.95;2.88;;;26.10;46.10;;;;;;5041313;28;20045;-41
2020/12/02 09:02:03;;;;;;;7.65;2.88;;;26.10;46.10;;;;;;5043019;28;20468;-41
2020/12/02 09:04:30;;;;;;;6.60;2.00;;;26.00;46.30;;;;;;5040336;28;20080;-41
2020/12/02 09:06:57;;;;;;;5.85;2.60;;;26.00;46.60;;;;;;5039471;28;20458;-41
2020/12/02 09:09:24;;;;;;;5.70;2.53;;;26.00;46.70;;;;;;5039425;28;20730;-42
2020/12/02 09:11:51;;;;;;;7.90;2.58;;;25.90;46.70;;;;;;5044223;28;20033;-41
2020/12/02 09:14:18;;;;;;;10.25;2.60;;;25.90;46.80;;;;;;5038584;28;20586;-41
2020/12/02 09:16:45;;;;;;;9.50;2.80;;;25.80;47.00;;;;;;5031786;28;20068;-41
2020/12/02 09:19:14;;;;;;;9.05;2.92;;;25.80;47.10;;;;;;5039434;28;20496;-42
2020/12/02 09:21:42;;;;;;;9.85;2.60;;;25.80;47.50;;;;;;5021582;28;20063;-42
2020/12/02 09:24:09;;;;;;;11.57;2.83;;;25.80;47.20;;;;;;5041219;28;20135;-41
2020/12/02 09:26:38;;;;;;;6.30;2.00;;;25.80;47.50;;;;;;5029813;28;20055;-41
2020/12/02 09:29:07;;;;;;;8.13;2.75;;;25.90;47.50;;;;;;5037930;28;20055;-43
2020/12/02 09:31:35;;;;;;;5.57;2.38;;;25.80;47.60;;;;;;5032999;28;20033;-43
2020/12/02 09:34:06;;;;;;;7.68;2.33;;;25.80;47.40;;;;;;5027334;28;20048;-42
2020/12/02 09:36:33;;;;;;;7.50;2.35;;;25.80;47.40;;;;;;5025314;28;20691;-41
2020/12/02 09:39:01;;;;;;;8.00;2.55;;;25.80;47.30;;;;;;5030443;28;20094;-41
2020/12/02 09:42:08;;;;;;;5.93;2.22;;;25.70;47.30;;;;;;5017885;28;20107;-42
2020/12/02 09:45:07;;;;;;;7.55;2.13;;;25.70;47.70;;;;;;5029466;28;20038;-41
2020/12/02 09:47:36;;;;;;;7.93;2.40;;;25.70;47.50;;;;;;5029494;28;20040;-41
2020/12/02 09:50:05;;;;;;;5.85;2.22;;;25.70;47.50;;;;;;5030618;28;20120;-42
2020/12/02 09:52:32;;;;;;;5.45;2.33;;;25.70;47.60;;;;;;5025023;28;20026;-44
2020/12/02 09:55:00;;;;;;;10.18;2.50;;;25.60;47.60;;;;;;5034419;28;20034;-39
2020/12/02 09:57:30;;;;;;;4.80;2.13;;;25.60;47.10;;;;;;5036619;28;20044;-39
2020/12/02 09:59:59;;;;;;;7.45;2.13;;;25.50;47.60;;;;;;5037087;28;20489;-39
2020/12/02 10:03:06;;;;;;;5.13;1.77;;;25.50;47.30;;;;;;5042926;28;20720;-39
2020/12/02 10:05:51;;;;;;;7.32;2.00;;;25.60;47.40;;;;;;5045322;28;20162;-39
2020/12/02 10:08:51;;;;;;;8.40;2.25;;;25.50;47.40;;;;;;5032899;28;20041;-41
2020/12/02 10:11:56;;;;;;;7.45;2.72;;;25.50;47.40;;;;;;5031194;28;20072;-40
2020/12/02 10:14:42;;;;;;;7.30;2.47;;;25.50;47.40;;;;;;5038046;28;20036;-39
2020/12/02 10:17:18;;;;;;;10.65;2.53;;;25.40;47.20;;;;;;5037393;28;20033;-39
2020/12/02 10:19:50;;;;;;;5.95;2.20;;;25.40;47.20;;;;;;5034130;28;20030;-39
2020/12/02 10:22:37;;;;;;;5.38;2.00;;;25.30;47.20;;;;;;5031173;28;20037;-38
2020/12/02 10:25:24;;;;;;;6.63;2.00;;;25.30;47.40;;;;;;5032241;28;20099;-38
2020/12/02 10:28:17;;;;;;;7.55;2.25;;;25.40;47.40;;;;;;5032143;28;20083;-39
2020/12/02 10:31:26;;;;;;;6.00;1.83;;;25.30;47.30;;;;;;5034382;28;20044;-39
2020/12/02 10:33:53;;;;;;;5.75;2.22;;;25.30;47.20;;;;;;5031249;28;20078;-39
2020/12/02 10:36:24;;;;;;;4.50;1.88;;;25.30;47.10;;;;;;5033921;28;20158;-39
2020/12/02 10:38:56;;;;;;;6.78;2.47;;;25.20;47.30;;;;;;5029741;28;20055;-39
2020/12/02 10:41:40;;;;;;;4.80;2.10;;;25.20;47.30;;;;;;5043703;28;20048;-39
2020/12/02 10:44:14;;;;;;;5.25;1.98;;;25.20;47.50;;;;;;5038858;28;20037;-39
2020/12/02 10:46:44;;;;;;;6.53;3.42;;;25.20;47.20;;;;;;5039806;28;20391;-40
2020/12/02 10:49:31;;;;;;;6.93;2.28;;;25.20;47.20;;;;;;5038292;28;20515;-39
2020/12/02 10:52:00;;;;;;;5.95;2.25;;;25.10;47.20;;;;;;5033909;28;20037;-39
2020/12/02 10:54:35;;;;;;;6.70;2.15;;;25.10;47.40;;;;;;5011590;28;20048;-38
2020/12/02 10:57:24;;;;;;;8.55;2.60;;;25.10;47.40;;;;;;5034158;28;20029;-43
2020/12/02 10:59:55;;;;;;;6.22;2.17;;;25.10;47.20;;;;;;5031942;28;20076;-40
2020/12/02 11:02:30;;;;;;;11.27;2.53;;;25.00;47.20;;;;;;5031949;28;20056;-40
2020/12/02 11:04:59;;;;;;;8.57;1.98;;;25.00;47.30;;;;;;5036465;28;20099;-40
2020/12/02 11:07:49;;;;;;;8.80;2.20;;;24.90;47.40;;;;;;5034077;28;20039;-40
2020/12/02 11:10:23;;;;;;;4.70;1.80;;;24.90;47.40;;;;;;5032259;28;20045;-40
2020/12/02 11:13:30;;;;;;;4.68;1.85;;;24.90;47.40;;;;;;5035578;28;20547;-40
2020/12/02 11:16:12;;;;;;;6.43;2.03;;;25.00;47.30;;;;;;5039781;28;20554;-40
2020/12/02 11:19:07;;;;;;;5.30;1.80;;;24.90;47.40;;;;;;5039318;28;20060;-39
2020/12/02 11:21:43;;;;;;;6.18;2.03;;;25.00;48.00;;;;;;5038831;28;20037;-39
2020/12/02 11:24:38;;;;;;;5.60;2.35;;;24.90;47.40;;;;;;5032085;28;20037;-40
2020/12/02 11:27:06;;;;;;;3.38;1.50;;;24.80;47.40;;;;;;5029897;28;20053;-40
2020/12/02 11:29:33;;;;;;;5.10;2.60;;;24.80;47.30;;;;;;5028694;28;20455;-39
2020/12/02 11:32:00;;;;;;;6.75;2.10;;;24.80;47.60;;;;;;5030847;28;20057;-39
2020/12/02 11:34:48;;;;;;;5.20;1.85;;;24.80;47.60;;;;;;5035313;28;20090;-39
2020/12/02 11:37:29;;;;;;;6.25;2.20;;;24.80;47.50;;;;;;5039717;28;20029;-40
2020/12/02 11:40:02;;;;;;;5.22;1.70;;;24.70;47.60;;;;;;5040514;28;20095;-40
2020/12/02 11:42:32;;;;;;;3.88;1.63;;;24.80;47.60;;;;;;5044629;28;20359;-39
2020/12/02 11:45:02;;;;;;;2.72;1.25;;;24.70;47.40;;;;;;5044034;28;20076;-39
2020/12/02 11:48:03;;;;;;;6.20;2.00;;;24.70;47.60;;;;;;5042340;28;20037;-39
2020/12/02 11:50:33;;;;;;;5.43;1.95;;;24.70;47.70;;;;;;5039910;28;20107;-40
2020/12/02 11:53:45;;;;;;;5.30;2.47;;;24.70;47.50;;;;;;5044135;28;20048;-39
2020/12/02 11:56:34;;;;;;;3.58;1.90;;;24.70;47.60;;;;;;5040859;28;20075;-40
2020/12/02 11:59:15;;;;;;;4.90;1.77;;;24.70;47.60;;;;;;5042728;28;20037;-39
2020/12/02 12:01:54;;;;;;;2.88;1.70;;;24.60;47.60;;;;;;5040320;28;20527;-39
2020/12/02 12:04:35;;;;;;;2.50;1.40;;;24.60;47.50;;;;;;5044260;28;20700;-39
2020/12/02 12:07:39;;;;;;;3.25;1.88;;;24.60;47.60;;;;;;5041345;28;20082;-39
2020/12/02 12:10:33;;;;;;;5.10;2.00;;;24.50;47.60;;;;;;5041218;28;20459;-39
2020/12/02 12:13:18;;;;;;;3.63;1.55;;;24.50;47.80;;;;;;5039855;28;20119;-40
2020/12/02 12:15:59;;;;;;;4.05;1.70;;;24.50;47.80;;;;;;5042921;28;20063;-39
2020/12/02 12:18:35;;;;;;;;;;;24.40;47.70;;;;;;5038166;28;20064;-39
2020/12/02 12:21:20;;;;;;;3.05;1.45;;;24.40;47.80;;;;;;5044891;28;20639;-39
2020/12/02 12:24:01;;;;;;;3.60;1.63;;;24.40;47.80;;;;;;5039850;28;20492;-39
2020/12/02 12:26:34;;;;;;;3.28;2.08;;;24.40;47.80;;;;;;5043463;28;20102;-39
2020/12/02 12:29:04;;;;;;;3.53;1.55;;;24.40;47.70;;;;;;5037398;28;20068;-39
2020/12/02 12:31:43;;;;;;;6.28;1.20;;;24.40;47.80;;;;;;5040960;28;20523;-39
2020/12/02 12:34:40;;;;;;;2.53;1.15;;;24.40;47.90;;;;;;5039345;28;20033;-40
2020/12/02 12:37:26;;;;;;;2.83;1.23;;;24.30;47.80;;;;;;5041910;28;20040;-40
2020/12/02 12:40:01;;;;;;;4.03;1.85;;;24.30;47.90;;;;;;5042507;28;20561;-39
2020/12/02 12:42:30;;;;;;;4.00;1.65;;;24.30;47.80;;;;;;5040192;28;20036;-39
2020/12/02 12:45:04;;;;;;;3.88;1.55;;;24.20;47.80;;;;;;5041131;28;20988;-39
2020/12/02 12:47:34;;;;;;;3.22;2.15;;;24.20;47.90;;;;;;5041043;28;20035;-40
2020/12/02 12:50:04;;;;;;;2.28;1.00;;;24.20;48.00;;;;;;5043987;28;20025;-41
2020/12/02 12:52:34;;;;;;;2.72;1.40;;;24.20;48.00;;;;;;5044566;28;20040;-39
2020/12/02 12:55:01;;;;;;;4.80;2.03;;;24.10;48.00;;;;;;5040445;28;20040;-39
2020/12/02 12:57:30;;;;;;;2.38;1.30;;;24.10;48.00;;;;;;5044285;28;20047;-40
2020/12/02 13:00:02;;;;;;;2.03;1.42;;;24.10;48.10;;;;;;5040057;28;20075;-39
2020/12/02 13:02:35;;;;;;;3.55;1.40;;;24.10;48.20;;;;;;5042098;28;20083;-39
2020/12/02 13:05:04;;;;;;;3.63;1.75;;;24.10;48.00;;;;;;5039941;28;20098;-39
2020/12/02 13:07:38;;;;;;;5.50;1.52;;;24.00;48.10;;;;;;5042352;28;20044;-40
2020/12/02 13:10:45;;;;;;;4.75;1.83;;;24.00;48.10;;;;;;5036154;28;20067;-39
2020/12/02 13:13:42;;;;;;;3.40;1.58;;;24.00;48.10;;;;;;5046181;28;20048;-39
2020/12/02 13:16:39;;;;;;;5.28;1.38;;;24.00;48.20;;;;;;5041904;28;20036;-40
2020/12/02 13:19:34;;;;;;;3.78;1.95;;;24.00;48.10;;;;;;5023526;28;21382;-41
2020/12/02 13:22:18;;;;;;;2.42;1.10;;;24.00;48.10;;;;;;5039212;28;20052;-39
2020/12/02 13:24:51;;;;;;;5.57;1.70;;;24.00;48.00;;;;;;5039663;28;20033;-40
2020/12/02 13:27:45;;;;;;;4.25;1.58;;;24.00;48.10;;;;;;5043214;28;20048;-39